Time;durP1;ratioP1;P1;durP2;ratioP2;P2;SDS_P1;SDS_P2;PMS_P1;PMS_P2;Temp;Humidity;BMP_temperature;BMP_pressure;BME280_temperature;BME280_humidity;BME280_pressure;Samples;Min_cycle;Max_cycle;Signal;HPM_P1;HPM_P2
2021/12/08 00:00:37;;;;;;;6.18;2.03;;;1.50;99.90;;;;;;5012347;28;20038;-66
2021/12/08 00:03:06;;;;;;;4.35;2.33;;;1.60;99.90;;;;;;5011666;28;20673;-66
2021/12/08 00:05:32;;;;;;;3.72;1.63;;;1.60;99.90;;;;;;5011309;28;20080;-66
2021/12/08 00:07:59;;;;;;;3.83;1.90;;;1.70;99.90;;;;;;5010508;28;20037;-66
2021/12/08 00:13:04;;;;;;;1.92;1.38;;;1.80;99.90;;;;;;5011562;28;20105;-66
2021/12/08 00:15:43;;;;;;;4.28;1.90;;;1.90;99.90;;;;;;5012167;28;20390;-66
2021/12/08 00:18:13;;;;;;;4.40;1.40;;;2.00;99.90;;;;;;5011693;28;20044;-66
2021/12/08 00:20:41;;;;;;;5.13;1.17;;;2.10;99.90;;;;;;5011859;28;20108;-66
2021/12/08 00:23:08;;;;;;;3.05;1.42;;;2.10;99.90;;;;;;5011648;28;20656;-66
2021/12/08 00:25:35;;;;;;;4.40;1.30;;;2.20;99.60;;;;;;5011663;28;20037;-66
2021/12/08 00:28:01;;;;;;;4.25;1.23;;;2.30;99.60;;;;;;5009999;28;20501;-66
2021/12/08 00:30:28;;;;;;;3.28;1.50;;;2.40;99.90;;;;;;5012005;28;20023;-66
2021/12/08 00:32:55;;;;;;;3.28;1.35;;;2.50;99.30;;;;;;5011180;28;20056;-66
2021/12/08 00:35:21;;;;;;;2.40;1.45;;;2.50;99.90;;;;;;5011970;28;20036;-66
2021/12/08 00:37:47;;;;;;;5.05;1.55;;;2.50;99.90;;;;;;5011502;28;20518;-67
2021/12/08 00:40:15;;;;;;;5.25;1.70;;;2.50;99.30;;;;;;5011297;28;20034;-66
2021/12/08 00:42:42;;;;;;;4.93;1.50;;;2.60;99.20;;;;;;5011534;28;20044;-66
2021/12/08 00:45:10;;;;;;;3.55;1.42;;;2.60;99.00;;;;;;5010628;28;20637;-66
2021/12/08 00:47:36;;;;;;;5.75;1.40;;;2.60;99.00;;;;;;5011879;28;20036;-66
2021/12/08 00:50:06;;;;;;;6.47;1.50;;;2.60;99.90;;;;;;5010942;28;20045;-66
2021/12/08 00:52:32;;;;;;;4.72;1.67;;;2.60;99.90;;;;;;5011772;28;20018;-66
2021/12/08 00:54:59;;;;;;;2.90;1.30;;;2.50;99.90;;;;;;5011007;28;20036;-66
2021/12/08 00:57:25;;;;;;;3.65;1.67;;;2.40;99.90;;;;;;5011955;28;20033;-66
2021/12/08 00:59:51;;;;;;;3.88;1.30;;;2.20;99.90;;;;;;4994692;28;20022;-67
2021/12/08 01:02:17;;;;;;;4.10;1.27;;;2.10;99.90;;;;;;4992540;28;20042;-66
2021/12/08 01:04:43;;;;;;;3.95;1.80;;;2.00;99.90;;;;;;4992153;28;20113;-66
2021/12/08 01:07:09;;;;;;;2.58;1.30;;;1.90;99.90;;;;;;4991316;28;20109;-66
2021/12/08 01:09:35;;;;;;;4.00;1.58;;;1.80;99.90;;;;;;4992434;28;20085;-66
2021/12/08 01:12:02;;;;;;;3.60;1.63;;;1.60;99.90;;;;;;4991482;28;20030;-66
2021/12/08 01:14:30;;;;;;;4.32;1.83;;;1.50;99.90;;;;;;4992503;28;20380;-66
2021/12/08 01:16:56;;;;;;;2.67;1.33;;;1.50;99.90;;;;;;4991262;28;20482;-67
2021/12/08 01:19:22;;;;;;;4.85;1.30;;;1.40;99.90;;;;;;4992118;28;20467;-67
2021/12/08 01:21:47;;;;;;;2.13;1.17;;;1.20;99.90;;;;;;4991857;28;20025;-67
2021/12/08 01:24:13;;;;;;;2.22;1.40;;;1.20;99.90;;;;;;4992131;28;20038;-66
2021/12/08 01:26:39;;;;;;;2.72;1.83;;;1.10;99.90;;;;;;4992085;28;20034;-66
2021/12/08 01:29:07;;;;;;;6.30;1.50;;;1.00;99.90;;;;;;4991295;28;20038;-66
2021/12/08 01:31:33;;;;;;;3.33;1.38;;;0.90;99.90;;;;;;4992145;28;20065;-66
2021/12/08 01:33:58;;;;;;;3.60;2.03;;;0.90;99.90;;;;;;4991228;28;20081;-68
2021/12/08 01:36:24;;;;;;;3.55;1.80;;;0.90;99.90;;;;;;4991794;28;20031;-68
2021/12/08 01:38:50;;;;;;;3.25;1.50;;;0.80;99.90;;;;;;4991559;28;20045;-69
2021/12/08 01:41:16;;;;;;;4.50;1.80;;;0.80;99.90;;;;;;4991612;28;20361;-67
2021/12/08 01:46:25;;;;;;;4.18;1.80;;;0.70;99.90;;;;;;4991775;28;20057;-67
2021/12/08 01:48:51;;;;;;;3.35;1.58;;;0.70;99.90;;;;;;4991381;28;20026;-68
2021/12/08 01:51:17;;;;;;;2.78;1.40;;;0.70;99.90;;;;;;4992177;28;20102;-67
2021/12/08 01:53:47;;;;;;;3.97;1.55;;;0.70;99.90;;;;;;4992116;28;20060;-67
2021/12/08 01:56:14;;;;;;;;;;;0.70;99.90;;;;;;4995537;28;20037;-67
2021/12/08 01:58:40;;;;;;;3.92;1.35;;;0.70;99.90;;;;;;5002678;28;20325;-67
2021/12/08 02:01:08;;;;;;;3.58;1.63;;;0.70;99.90;;;;;;5013760;28;20033;-67
2021/12/08 02:03:35;;;;;;;4.50;1.40;;;0.80;99.90;;;;;;5015106;28;20034;-67
2021/12/08 02:06:03;;;;;;;2.10;1.17;;;0.80;99.90;;;;;;5014242;28;20080;-67
2021/12/08 02:08:29;;;;;;;4.50;1.30;;;0.70;99.90;;;;;;5015148;28;20033;-67
2021/12/08 02:10:55;;;;;;;3.20;1.65;;;0.80;99.90;;;;;;5014153;28;20188;-67
2021/12/08 02:13:21;;;;;;;4.20;1.48;;;0.80;99.90;;;;;;5013862;28;20136;-67
2021/12/08 02:15:48;;;;;;;5.00;1.80;;;0.80;99.90;;;;;;5014674;28;20032;-67
2021/12/08 02:18:15;;;;;;;5.88;1.58;;;0.90;99.90;;;;;;5014377;28;20033;-67
2021/12/08 02:20:44;;;;;;;2.60;1.30;;;0.90;99.90;;;;;;5014996;28;20434;-67
2021/12/08 02:23:10;;;;;;;2.95;1.30;;;0.90;99.90;;;;;;5014124;28;20584;-67
2021/12/08 02:25:36;;;;;;;2.28;1.38;;;0.90;99.90;;;;;;5014617;28;20030;-67
2021/12/08 02:28:07;;;;;;;3.17;1.48;;;0.90;99.90;;;;;;5013472;28;20037;-67
2021/12/08 02:30:42;;;;;;;2.88;1.42;;;0.90;99.90;;;;;;5014925;28;20022;-67
2021/12/08 02:47:12;;;;;;;3.15;1.95;;;1.00;99.90;;;;;;5013690;28;20525;-68
2021/12/08 02:49:38;;;;;;;4.25;1.60;;;1.00;99.90;;;;;;5014385;28;20533;-67
2021/12/08 02:52:08;;;;;;;3.35;1.65;;;1.10;99.90;;;;;;5013333;28;20096;-68
2021/12/08 02:54:37;;;;;;;4.05;1.70;;;1.10;99.90;;;;;;5014039;28;20042;-67
2021/12/08 02:57:03;;;;;;;6.73;1.80;;;1.10;99.90;;;;;;5013255;28;20060;-67
2021/12/08 02:59:29;;;;;;;4.13;2.30;;;1.10;99.90;;;;;;4999848;28;20765;-67
2021/12/08 03:01:54;;;;;;;5.55;1.85;;;1.20;99.90;;;;;;4993039;28;20113;-68
2021/12/08 03:04:20;;;;;;;5.53;2.45;;;1.20;99.90;;;;;;4994671;28;20037;-66
2021/12/08 03:06:46;;;;;;;4.20;2.47;;;1.10;99.90;;;;;;4994149;28;20069;-67
2021/12/08 03:09:11;;;;;;;3.80;2.00;;;1.10;99.90;;;;;;4993319;28;20027;-67
2021/12/08 03:11:37;;;;;;;3.42;2.17;;;1.10;99.90;;;;;;4994356;28;20027;-67
2021/12/08 03:14:09;;;;;;;5.78;2.33;;;1.10;99.90;;;;;;4992931;28;20460;-67
2021/12/08 03:16:37;;;;;;;3.70;1.98;;;1.10;99.90;;;;;;4994264;28;20061;-66
2021/12/08 03:19:04;;;;;;;6.93;2.25;;;1.10;99.90;;;;;;4992888;28;20026;-67
2021/12/08 03:21:32;;;;;;;4.22;2.25;;;1.10;99.90;;;;;;4994111;28;20026;-67
2021/12/08 03:26:54;;;;;;;5.90;2.65;;;1.10;99.90;;;;;;4993750;28;20030;-67
2021/12/08 03:29:29;;;;;;;6.35;2.42;;;1.00;99.90;;;;;;4993860;28;20383;-67
2021/12/08 03:32:03;;;;;;;4.80;2.30;;;1.00;99.90;;;;;;4993237;28;20041;-68
2021/12/08 03:34:31;;;;;;;4.25;2.35;;;1.00;99.90;;;;;;4993907;28;20510;-67
2021/12/08 03:36:57;;;;;;;5.30;2.70;;;1.00;99.90;;;;;;4992776;28;20080;-68
2021/12/08 03:39:23;;;;;;;6.70;2.83;;;1.00;99.90;;;;;;4993766;28;20460;-67
2021/12/08 03:41:48;;;;;;;5.00;3.00;;;1.00;99.90;;;;;;4993816;28;20027;-67
2021/12/08 03:44:14;;;;;;;3.63;2.53;;;1.10;99.90;;;;;;4992416;28;20034;-67
2021/12/08 03:46:42;;;;;;;4.55;2.88;;;1.10;99.90;;;;;;4992808;28;20148;-67
2021/12/08 03:49:14;;;;;;;7.05;2.95;;;1.20;99.90;;;;;;4991841;28;20570;-67
2021/12/08 03:51:41;;;;;;;7.75;3.53;;;1.30;99.90;;;;;;4993031;28;20031;-67
2021/12/08 03:54:06;;;;;;;7.05;2.95;;;1.30;99.90;;;;;;4992046;28;20030;-67
2021/12/08 03:56:33;;;;;;;4.38;2.70;;;1.30;99.90;;;;;;4992938;28;20036;-67
2021/12/08 03:58:58;;;;;;;3.22;2.35;;;1.40;99.90;;;;;;5016717;28;20482;-67
2021/12/08 04:01:24;;;;;;;4.53;2.55;;;1.40;99.90;;;;;;5020605;28;20042;-67
2021/12/08 04:03:51;;;;;;;4.88;3.05;;;1.40;99.90;;;;;;5020390;28;20068;-67
2021/12/08 04:09:32;;;;;;;5.28;3.10;;;1.40;99.90;;;;;;4967602;28;20041;-67
2021/12/08 04:11:58;;;;;;;5.95;3.00;;;1.40;99.90;;;;;;5011717;28;20032;-67
2021/12/08 04:14:28;;;;;;;9.43;3.13;;;1.30;99.90;;;;;;5011991;28;20037;-67
2021/12/08 04:17:15;;;;;;;5.35;3.08;;;1.30;99.90;;;;;;5010992;28;20030;-67
2021/12/08 04:19:42;;;;;;;4.95;3.30;;;1.40;99.90;;;;;;5011827;28;20510;-67
2021/12/08 04:22:14;;;;;;;4.60;3.13;;;1.40;99.90;;;;;;5011379;28;20025;-67
2021/12/08 04:24:43;;;;;;;7.47;3.35;;;1.40;99.90;;;;;;5012011;28;20101;-67
2021/12/08 04:27:13;;;;;;;5.72;3.15;;;1.50;99.90;;;;;;5010904;28;20029;-67
2021/12/08 04:29:42;;;;;;;5.85;3.45;;;1.50;99.90;;;;;;5012210;28;20037;-67
2021/12/08 04:32:13;;;;;;;5.93;4.00;;;1.50;99.90;;;;;;5010861;28;20049;-67
2021/12/08 04:34:40;;;;;;;9.73;4.20;;;1.60;99.90;;;;;;5011966;28;20038;-67
2021/12/08 04:37:17;;;;;;;8.88;4.28;;;1.80;99.90;;;;;;5011095;28;20092;-67
2021/12/08 04:40:00;;;;;;;11.55;4.53;;;2.00;99.90;;;;;;5011842;28;20029;-67
2021/12/08 04:43:07;;;;;;;9.80;4.72;;;2.00;99.90;;;;;;5010704;28;20415;-67
2021/12/08 04:45:27;;;;;;;7.25;4.10;;;2.00;99.90;;;;;;5006716;28;20057;-66
2021/12/08 04:50:48;;;;;;;8.60;4.72;;;2.10;99.90;;;;;;5011485;28;20022;-66
2021/12/08 05:07:02;;;;;;;8.10;4.90;;;2.10;99.90;;;;;;4991930;28;20064;-66
2021/12/08 05:09:32;;;;;;;8.77;5.68;;;2.10;99.90;;;;;;4991619;28;20114;-67
2021/12/08 05:12:11;;;;;;;12.82;6.30;;;2.10;99.90;;;;;;4990961;28;20045;-67
2021/12/08 05:14:45;;;;;;;10.93;6.03;;;2.00;99.90;;;;;;4991889;28;20054;-67
2021/12/08 05:17:19;;;;;;;10.95;5.93;;;2.00;99.90;;;;;;4990875;28;20161;-66
2021/12/08 05:19:48;;;;;;;9.90;5.30;;;2.00;99.90;;;;;;4991955;28;20069;-66
2021/12/08 05:22:23;;;;;;;10.75;6.63;;;1.90;99.90;;;;;;4991052;28;20042;-67
2021/12/08 07:56:19;;;;;;;7.07;4.38;;;3.20;99.90;;;;;;5190967;23;20054;-70
2021/12/08 07:58:50;;;;;;;9.63;4.57;;;3.20;99.90;;;;;;4965203;28;20030;-68
2021/12/08 08:01:24;;;;;;;5.50;3.97;;;3.20;99.90;;;;;;4961720;28;20094;-70
2021/12/08 08:03:51;;;;;;;7.03;4.10;;;3.20;99.90;;;;;;4953366;29;20081;-68
2021/12/08 08:06:24;;;;;;;4.95;3.38;;;3.30;99.90;;;;;;4969385;28;20027;-69
2021/12/08 08:08:49;;;;;;;5.05;3.38;;;3.30;99.90;;;;;;4987127;28;20076;-69
2021/12/08 08:11:30;;;;;;;5.25;3.47;;;3.40;99.90;;;;;;4972669;28;20030;-70
2021/12/08 08:13:58;;;;;;;5.47;3.75;;;3.40;99.90;;;;;;4973099;28;20475;-69
2021/12/08 08:16:27;;;;;;;4.90;4.20;;;3.50;99.90;;;;;;4972786;28;20093;-69
2021/12/08 08:19:02;;;;;;;9.70;3.65;;;3.50;99.90;;;;;;4972419;28;20035;-69
2021/12/08 08:21:37;;;;;;;5.10;3.47;;;3.50;99.90;;;;;;4972337;28;20030;-69
2021/12/08 08:24:05;;;;;;;6.25;3.72;;;3.50;99.90;;;;;;4973060;28;20030;-71
2021/12/08 08:26:32;;;;;;;8.32;4.60;;;3.50;99.90;;;;;;4970740;28;20515;-70
2021/12/08 08:28:58;;;;;;;7.95;4.40;;;3.50;99.90;;;;;;4972823;28;20117;-69
2021/12/08 08:31:32;;;;;;;6.45;4.35;;;3.50;99.90;;;;;;4972121;28;20034;-69
2021/12/08 08:34:00;;;;;;;7.97;4.53;;;3.40;99.90;;;;;;4972858;28;20031;-69
2021/12/08 08:36:30;;;;;;;9.27;5.43;;;3.40;99.90;;;;;;4971007;28;20116;-69
2021/12/08 08:38:58;;;;;;;;;;;3.40;99.90;;;;;;4973446;28;20038;-69
2021/12/08 08:41:29;;;;;;;10.10;5.47;;;3.50;99.90;;;;;;4980101;28;19968;-69
2021/12/08 08:44:00;;;;;;;10.18;5.70;;;3.40;99.90;;;;;;4992512;28;20033;-68
2021/12/08 08:46:33;;;;;;;9.05;5.25;;;3.40;99.90;;;;;;4990135;28;20031;-69
2021/12/08 08:49:04;;;;;;;8.70;5.22;;;3.40;99.90;;;;;;4992460;28;20126;-69
2021/12/08 08:51:38;;;;;;;7.07;5.25;;;3.40;99.90;;;;;;4991915;28;20038;-69
2021/12/08 08:54:13;;;;;;;7.38;4.97;;;3.40;99.90;;;;;;4985509;28;20526;-71
2021/12/08 08:56:45;;;;;;;7.20;5.25;;;3.40;99.90;;;;;;4972527;28;20072;-69
2021/12/08 08:59:17;;;;;;;9.90;5.55;;;3.40;99.90;;;;;;4972063;28;20023;-69
2021/12/08 09:01:46;;;;;;;7.38;5.40;;;3.40;99.90;;;;;;4972911;28;20038;-69
2021/12/08 09:04:20;;;;;;;7.03;4.68;;;3.40;99.90;;;;;;4970925;28;20031;-68
2021/12/08 09:06:51;;;;;;;8.98;5.88;;;3.40;99.90;;;;;;4967706;28;20034;-69
2021/12/08 09:09:24;;;;;;;8.65;5.82;;;3.40;99.90;;;;;;4975547;28;20365;-68
2021/12/08 09:11:54;;;;;;;11.07;5.72;;;3.40;99.90;;;;;;4976558;28;20026;-69
2021/12/08 09:14:39;;;;;;;8.50;5.45;;;3.50;99.90;;;;;;4975740;28;20361;-68
2021/12/08 09:17:08;;;;;;;9.13;4.93;;;3.50;99.90;;;;;;4976280;28;20030;-70
2021/12/08 09:19:41;;;;;;;8.30;5.25;;;3.50;99.90;;;;;;4976297;28;20628;-69
2021/12/08 09:22:13;;;;;;;8.07;5.30;;;3.50;99.90;;;;;;4974532;28;20023;-70
2021/12/08 09:25:06;;;;;;;7.80;5.20;;;3.50;99.90;;;;;;4975958;28;20039;-69
2021/12/08 09:27:40;;;;;;;6.88;5.20;;;3.60;99.90;;;;;;4975567;28;20579;-69
2021/12/08 09:30:15;;;;;;;7.97;5.20;;;3.60;99.90;;;;;;4975938;28;20058;-70
2021/12/08 09:32:49;;;;;;;6.93;5.25;;;3.60;99.90;;;;;;4976002;28;20125;-70
2021/12/08 09:35:30;;;;;;;6.88;4.90;;;3.60;99.90;;;;;;4975116;28;20102;-69
2021/12/08 09:38:00;;;;;;;8.95;4.57;;;3.60;99.90;;;;;;4976051;28;20465;-68
2021/12/08 09:40:32;;;;;;;6.57;4.22;;;3.60;99.90;;;;;;4975100;28;20027;-69
2021/12/08 09:43:02;;;;;;;5.80;4.55;;;3.70;99.90;;;;;;4974688;28;20031;-68
2021/12/08 09:45:34;;;;;;;7.05;4.35;;;3.70;99.90;;;;;;4973576;28;20115;-67
2021/12/08 09:48:06;;;;;;;5.07;3.72;;;3.70;99.90;;;;;;4975541;28;20038;-68
2021/12/08 09:50:32;;;;;;;9.52;3.90;;;3.70;99.90;;;;;;4975277;28;20110;-68
2021/12/08 09:52:58;;;;;;;6.53;4.30;;;3.70;99.90;;;;;;4975391;28;20074;-68
2021/12/08 09:55:24;;;;;;;4.53;3.65;;;3.80;99.90;;;;;;4974630;28;20085;-68
2021/12/08 09:57:50;;;;;;;10.57;6.65;;;3.80;99.90;;;;;;4975754;28;20035;-68
2021/12/08 10:00:23;;;;;;;10.32;7.10;;;3.90;99.90;;;;;;4974790;28;20423;-68
2021/12/08 10:02:54;;;;;;;8.52;6.53;;;3.90;99.90;;;;;;4975128;28;20027;-69
2021/12/08 10:05:20;;;;;;;13.00;7.63;;;3.90;99.90;;;;;;4974753;28;20027;-68
2021/12/08 10:07:45;;;;;;;11.90;7.22;;;3.90;99.90;;;;;;4974487;28;20424;-69
2021/12/08 10:10:14;;;;;;;13.57;7.57;;;3.90;99.90;;;;;;4974675;28;20029;-69
2021/12/08 10:12:41;;;;;;;10.20;7.45;;;4.00;99.90;;;;;;4975801;28;20018;-69
2021/12/08 10:15:13;;;;;;;9.82;7.20;;;4.00;99.90;;;;;;4979640;28;20189;-70
2021/12/08 10:17:39;;;;;;;13.07;8.55;;;4.00;99.90;;;;;;4989656;28;20368;-69
2021/12/08 10:20:47;;;;;;;16.25;10.48;;;4.10;99.90;;;;;;4979925;28;20023;-69
2021/12/08 10:23:30;;;;;;;18.73;11.25;;;4.10;99.90;;;;;;4898738;29;20040;-69
2021/12/08 10:25:58;;;;;;;18.80;12.13;;;4.10;99.90;;;;;;4915143;29;20556;-69
2021/12/08 10:28:28;;;;;;;20.30;11.52;;;4.10;99.90;;;;;;4915042;29;20176;-69
2021/12/08 10:31:15;;;;;;;14.88;10.95;;;4.00;99.90;;;;;;4907608;29;20028;-68
2021/12/08 10:34:10;;;;;;;14.98;10.45;;;4.00;99.90;;;;;;4915588;29;20051;-68
2021/12/08 10:36:45;;;;;;;11.70;8.77;;;4.10;99.90;;;;;;4915748;29;20030;-69
2021/12/08 10:39:15;;;;;;;12.77;8.07;;;4.10;99.90;;;;;;4914726;29;20070;-70
2021/12/08 10:42:04;;;;;;;11.82;7.32;;;4.10;99.90;;;;;;4915714;29;20106;-68
2021/12/08 10:44:39;;;;;;;8.25;6.30;;;4.10;99.90;;;;;;4915035;29;20050;-68
2021/12/08 10:47:05;;;;;;;10.98;5.90;;;4.10;99.90;;;;;;4915068;29;20072;-69
2021/12/08 10:54:45;;;;;;;17.17;7.75;;;4.30;99.90;;;;;;4964438;28;20131;-68
2021/12/08 10:57:34;;;;;;;12.68;7.60;;;4.30;99.90;;;;;;4974664;28;20137;-67
2021/12/08 11:00:12;;;;;;;10.82;7.07;;;4.40;99.90;;;;;;4981387;28;20089;-68
2021/12/08 11:02:39;;;;;;;10.65;6.78;;;4.40;99.90;;;;;;4994528;28;20133;-68
2021/12/08 11:05:26;;;;;;;13.02;6.25;;;4.40;99.90;;;;;;4983701;28;20031;-69
2021/12/08 11:08:17;;;;;;;8.23;5.95;;;4.40;99.90;;;;;;4975006;28;20031;-69
2021/12/08 11:10:58;;;;;;;11.60;7.13;;;4.40;99.90;;;;;;4967666;28;20066;-69
2021/12/08 11:13:33;;;;;;;13.60;7.53;;;4.50;99.90;;;;;;4974171;28;20043;-68
2021/12/08 11:16:04;;;;;;;11.95;7.72;;;4.50;99.90;;;;;;4974723;28;20027;-68
2021/12/08 11:18:32;;;;;;;8.68;6.90;;;4.60;99.90;;;;;;4974257;28;20031;-69
2021/12/08 11:21:02;;;;;;;9.30;7.30;;;4.60;99.90;;;;;;4974737;28;20038;-68
2021/12/08 11:23:42;;;;;;;9.75;7.55;;;4.60;99.90;;;;;;4974076;28;20340;-68
2021/12/08 11:26:37;;;;;;;7.50;5.38;;;4.60;99.90;;;;;;4973619;28;20039;-69
2021/12/08 11:29:17;;;;;;;8.07;4.07;;;4.70;99.90;;;;;;4969352;28;20504;-70
2021/12/08 11:32:03;;;;;;;6.32;4.13;;;4.70;99.90;;;;;;4974382;28;20086;-69
2021/12/08 11:34:36;;;;;;;4.88;3.67;;;4.70;99.90;;;;;;4973971;28;20092;-69
2021/12/08 11:37:14;;;;;;;6.20;3.83;;;4.70;99.90;;;;;;4974919;28;20498;-69
2021/12/08 11:39:42;;;;;;;6.13;3.60;;;4.80;99.90;;;;;;4974407;28;20027;-69
2021/12/08 11:42:21;;;;;;;3.55;2.80;;;4.80;99.90;;;;;;4973865;28;20031;-70
2021/12/08 11:44:53;;;;;;;5.05;3.70;;;4.80;99.90;;;;;;4974343;28;20027;-69
2021/12/08 11:47:31;;;;;;;7.78;5.18;;;4.90;99.90;;;;;;4973255;28;20026;-69
2021/12/08 11:50:07;;;;;;;11.35;7.05;;;5.00;99.90;;;;;;4974437;28;20038;-68
2021/12/08 11:52:33;;;;;;;8.70;6.38;;;5.00;99.90;;;;;;4974363;28;20023;-70
2021/12/08 11:55:09;;;;;;;10.50;6.82;;;4.90;99.90;;;;;;4973987;28;20031;-70
2021/12/08 11:57:39;;;;;;;9.02;5.40;;;4.80;99.90;;;;;;4974297;28;20065;-70
2021/12/08 12:00:22;;;;;;;6.43;4.65;;;4.80;99.90;;;;;;4973272;28;20018;-70
2021/12/08 12:02:58;;;;;;;5.57;4.05;;;4.80;99.90;;;;;;4973880;28;20027;-70
2021/12/08 12:05:34;;;;;;;6.32;3.92;;;4.80;99.90;;;;;;4960669;28;20031;-70
2021/12/08 12:08:03;;;;;;;4.43;3.20;;;4.80;99.90;;;;;;4954511;28;20024;-70
2021/12/08 12:10:32;;;;;;;4.25;3.20;;;4.70;99.90;;;;;;4953756;28;20150;-69
2021/12/08 12:12:58;;;;;;;4.85;3.42;;;4.80;99.90;;;;;;4954943;28;20453;-69
2021/12/08 12:15:25;;;;;;;5.13;3.15;;;4.80;99.90;;;;;;4953397;29;20573;-69
2021/12/08 12:17:51;;;;;;;3.78;3.03;;;4.80;99.90;;;;;;4970138;28;20026;-70
2021/12/08 12:20:55;;;;;;;4.78;3.20;;;4.80;99.90;;;;;;4972747;28;20085;-70
2021/12/08 12:23:42;;;;;;;4.78;3.10;;;4.90;99.90;;;;;;4966384;28;20193;-70
2021/12/08 12:26:31;;;;;;;6.32;3.63;;;4.90;99.90;;;;;;4974258;28;20026;-70
2021/12/08 12:29:36;;;;;;;6.50;3.45;;;4.90;99.90;;;;;;4991880;28;20030;-69
2021/12/08 12:32:10;;;;;;;6.43;3.40;;;4.90;99.90;;;;;;4952394;29;20119;-77
2021/12/08 12:34:40;;;;;;;6.97;4.03;;;4.90;99.90;;;;;;4954028;28;20109;-71
2021/12/08 12:37:30;;;;;;;6.40;4.13;;;5.00;99.90;;;;;;4953659;28;20046;-75
2021/12/08 12:39:57;;;;;;;5.70;3.75;;;5.00;99.90;;;;;;4953803;28;20358;-74
2021/12/08 12:42:25;;;;;;;4.20;3.65;;;5.00;99.90;;;;;;4953652;28;20027;-73
2021/12/08 12:44:57;;;;;;;4.88;4.03;;;5.00;99.90;;;;;;4953974;29;20038;-73
2021/12/08 12:47:25;;;;;;;5.60;3.55;;;5.00;99.90;;;;;;4967801;28;20022;-72
2021/12/08 12:50:03;;;;;;;5.72;4.30;;;5.00;99.90;;;;;;4992180;28;20034;-72
2021/12/08 12:52:51;;;;;;;7.38;4.50;;;5.00;99.90;;;;;;4991038;28;20034;-72
2021/12/08 12:55:34;;;;;;;4.18;3.72;;;5.00;99.90;;;;;;4990732;28;20035;-71
2021/12/08 12:58:05;;;;;;;5.20;4.30;;;5.00;99.90;;;;;;4992288;28;20070;-72
2021/12/08 13:00:35;;;;;;;6.68;4.55;;;5.00;99.90;;;;;;4978396;28;20027;-71
2021/12/08 13:03:01;;;;;;;5.73;4.27;;;5.00;99.90;;;;;;4972388;28;20101;-72
2021/12/08 13:05:52;;;;;;;6.07;4.30;;;5.00;99.90;;;;;;4958448;28;20035;-71
2021/12/08 13:08:41;;;;;;;7.03;4.55;;;5.00;99.90;;;;;;4952646;29;20024;-72
2021/12/08 13:11:33;;;;;;;7.75;4.10;;;5.00;99.90;;;;;;4959993;28;20046;-72
2021/12/08 13:14:01;;;;;;;4.78;4.22;;;5.00;99.90;;;;;;4972504;28;20030;-72
2021/12/08 13:16:35;;;;;;;7.22;4.50;;;5.00;99.90;;;;;;4971210;28;20027;-72
2021/12/08 13:19:04;;;;;;;8.45;4.50;;;4.90;99.90;;;;;;4971799;28;20037;-72
2021/12/08 13:21:45;;;;;;;7.38;4.82;;;4.90;99.90;;;;;;4971285;28;20030;-72
2021/12/08 13:24:39;;;;;;;6.88;4.82;;;5.00;99.90;;;;;;4972135;28;20364;-72
2021/12/08 13:27:11;;;;;;;5.75;4.45;;;4.90;99.90;;;;;;4970709;28;20471;-80
2021/12/08 13:29:45;;;;;;;6.45;4.22;;;4.90;99.90;;;;;;4971319;28;20030;-73
2021/12/08 13:32:16;;;;;;;6.47;4.55;;;4.90;99.90;;;;;;4971960;28;20065;-73
2021/12/08 13:35:00;;;;;;;6.80;4.40;;;4.90;99.90;;;;;;4971841;28;20045;-73
2021/12/08 13:37:31;;;;;;;5.03;3.95;;;4.90;99.90;;;;;;4967057;28;20142;-71
2021/12/08 13:40:15;;;;;;;7.30;4.43;;;4.90;99.90;;;;;;4972750;28;20050;-71
2021/12/08 13:42:54;;;;;;;7.50;4.75;;;4.90;99.90;;;;;;4972266;28;20543;-72
2021/12/08 13:45:20;;;;;;;8.48;6.03;;;4.90;99.90;;;;;;4972053;28;20041;-71
2021/12/08 13:47:48;;;;;;;10.32;6.07;;;4.90;99.90;;;;;;4970934;28;20383;-71
2021/12/08 13:50:25;;;;;;;6.20;5.15;;;4.80;99.90;;;;;;4977968;28;20022;-72
2021/12/08 13:53:16;;;;;;;9.77;6.57;;;4.80;99.90;;;;;;4995905;28;20026;-71
2021/12/08 13:55:53;;;;;;;8.38;5.88;;;4.80;99.90;;;;;;4995654;28;20046;-71
2021/12/08 13:58:21;;;;;;;9.25;6.07;;;4.80;99.90;;;;;;4994815;28;20121;-72
2021/12/08 14:00:49;;;;;;;9.52;6.70;;;4.80;99.90;;;;;;4970738;28;20400;-71
2021/12/08 14:03:20;;;;;;;9.38;6.25;;;4.70;99.90;;;;;;4994369;28;20038;-72
2021/12/08 14:05:51;;;;;;;13.00;7.20;;;4.70;99.90;;;;;;4979482;28;20018;-71
2021/12/08 14:08:30;;;;;;;10.93;6.82;;;4.60;99.90;;;;;;4975196;28;20019;-71
2021/12/08 14:11:02;;;;;;;12.00;7.85;;;4.60;99.90;;;;;;4975907;28;20030;-73
2021/12/08 14:13:33;;;;;;;16.00;7.22;;;4.60;99.90;;;;;;4975164;28;20046;-73
2021/12/08 14:16:01;;;;;;;9.98;7.00;;;4.60;99.90;;;;;;4975025;28;20381;-73
2021/12/08 14:18:34;;;;;;;11.40;7.35;;;4.50;99.90;;;;;;4975298;28;20065;-73
2021/12/08 14:21:33;;;;;;;11.35;7.25;;;4.50;99.90;;;;;;4975913;28;20030;-73
2021/12/08 14:24:06;;;;;;;11.60;6.85;;;4.50;99.90;;;;;;4975786;28;20026;-72
2021/12/08 14:26:37;;;;;;;9.52;6.68;;;4.40;99.90;;;;;;4975048;28;20074;-73
2021/12/08 14:29:07;;;;;;;11.30;8.18;;;4.40;99.90;;;;;;4974927;28;20034;-73
2021/12/08 14:31:38;;;;;;;12.85;7.57;;;4.30;99.90;;;;;;4975125;28;20487;-73
2021/12/08 14:34:12;;;;;;;9.30;6.70;;;4.30;99.90;;;;;;4975481;28;20047;-72
2021/12/08 14:36:38;;;;;;;11.10;7.47;;;4.30;99.90;;;;;;4975287;28;20035;-73
2021/12/08 14:39:18;;;;;;;12.60;7.88;;;4.30;99.90;;;;;;4975342;28;20030;-73
2021/12/08 14:41:45;;;;;;;12.65;7.25;;;4.20;99.90;;;;;;4975449;28;20023;-73
2021/12/08 14:44:17;;;;;;;10.65;7.70;;;4.20;99.90;;;;;;4975027;28;20034;-72
2021/12/08 14:46:49;;;;;;;12.02;7.18;;;4.20;99.90;;;;;;4974856;28;20039;-72
2021/12/08 14:49:19;;;;;;;13.25;8.40;;;4.20;99.90;;;;;;4974422;28;20034;-70
2021/12/08 14:51:46;;;;;;;;;;;4.10;99.90;;;;;;4975336;28;20023;-68
2021/12/08 14:54:24;;;;;;;11.90;7.53;;;4.10;99.90;;;;;;4974487;28;19914;-70
2021/12/08 14:57:13;;;;;;;12.07;8.68;;;4.10;99.90;;;;;;4974289;28;20065;-71
2021/12/08 15:00:03;;;;;;;11.27;8.15;;;4.10;99.90;;;;;;4973644;28;20431;-71
2021/12/08 15:03:03;;;;;;;11.95;8.70;;;4.10;99.90;;;;;;4973575;28;20047;-70
2021/12/08 15:05:30;;;;;;;12.38;8.27;;;4.20;99.90;;;;;;4973952;28;20023;-72
2021/12/08 15:08:05;;;;;;;10.82;7.80;;;4.30;99.90;;;;;;4974359;28;20035;-72
2021/12/08 15:10:30;;;;;;;13.32;9.10;;;4.20;99.90;;;;;;4973898;28;20019;-72
2021/12/08 15:13:12;;;;;;;10.48;8.30;;;4.20;99.90;;;;;;4973957;28;20027;-72
2021/12/08 15:15:43;;;;;;;11.40;8.68;;;4.10;99.90;;;;;;4973872;28;20341;-72
2021/12/08 15:18:10;;;;;;;12.15;8.98;;;4.10;99.90;;;;;;4973604;28;20471;-72
2021/12/08 15:20:39;;;;;;;13.98;9.20;;;4.10;99.90;;;;;;4973557;28;20082;-72
2021/12/08 15:23:14;;;;;;;14.27;9.75;;;4.10;99.90;;;;;;4974239;28;20027;-72
2021/12/08 15:25:46;;;;;;;17.92;9.38;;;4.00;99.90;;;;;;4974394;28;20110;-72
2021/12/08 15:28:14;;;;;;;13.10;8.90;;;4.00;99.90;;;;;;4973696;28;20058;-71
2021/12/08 15:30:58;;;;;;;13.57;9.38;;;4.00;99.90;;;;;;4972125;28;20052;-70
2021/12/08 15:33:26;;;;;;;12.75;8.13;;;3.90;99.90;;;;;;4973571;28;20417;-70
2021/12/08 15:36:02;;;;;;;13.23;9.48;;;3.90;99.90;;;;;;4973929;28;20037;-71
2021/12/08 15:38:28;;;;;;;13.05;9.13;;;3.90;99.90;;;;;;4973064;28;20482;-72
2021/12/08 15:40:54;;;;;;;11.23;8.13;;;3.90;99.90;;;;;;4973732;28;20039;-72
2021/12/08 15:43:22;;;;;;;14.05;8.70;;;3.90;99.90;;;;;;4973345;28;20026;-70
2021/12/08 15:45:51;;;;;;;17.63;9.07;;;3.80;99.90;;;;;;4973818;28;20034;-72
2021/12/08 15:48:19;;;;;;;11.70;8.90;;;3.80;99.90;;;;;;4973433;28;20023;-70
2021/12/08 15:50:48;;;;;;;12.77;8.57;;;3.80;99.90;;;;;;4973789;28;20106;-72
2021/12/08 15:53:26;;;;;;;12.60;9.05;;;3.70;99.90;;;;;;4973655;28;20058;-70
2021/12/08 15:56:05;;;;;;;12.93;8.80;;;3.70;99.90;;;;;;4973608;28;20076;-72
2021/12/08 15:58:43;;;;;;;15.50;10.35;;;3.70;99.90;;;;;;4972904;28;20476;-72
2021/12/08 16:01:15;;;;;;;19.33;10.88;;;3.70;99.90;;;;;;4973263;28;20122;-72
2021/12/08 16:03:49;;;;;;;16.85;11.27;;;3.70;99.90;;;;;;4973378;28;20388;-72
2021/12/08 16:06:37;;;;;;;13.25;9.90;;;3.70;99.90;;;;;;4954194;28;20418;-71
2021/12/08 16:09:32;;;;;;;17.88;9.52;;;3.70;99.90;;;;;;4954456;29;20070;-72
2021/12/08 16:12:00;;;;;;;13.50;9.35;;;3.70;99.90;;;;;;4954499;28;20082;-71
2021/12/08 16:14:31;;;;;;;19.05;10.38;;;3.70;99.90;;;;;;4952439;29;20039;-72
2021/12/08 16:17:19;;;;;;;15.25;8.77;;;3.60;99.90;;;;;;4962332;28;20062;-72
2021/12/08 16:19:46;;;;;;;20.15;10.10;;;3.60;99.90;;;;;;4973075;28;20388;-71
2021/12/08 16:22:13;;;;;;;13.00;8.95;;;3.60;99.90;;;;;;4972688;28;20448;-71
2021/12/08 16:24:41;;;;;;;16.90;10.40;;;3.60;99.90;;;;;;4971976;28;20031;-71
2021/12/08 16:27:11;;;;;;;18.85;11.15;;;3.60;99.90;;;;;;4972708;28;20038;-71
2021/12/08 16:29:38;;;;;;;19.38;11.07;;;3.60;99.90;;;;;;4971517;28;20030;-71
2021/12/08 16:32:16;;;;;;;16.95;10.73;;;3.50;99.90;;;;;;4977848;28;20121;-70
2021/12/08 16:34:43;;;;;;;20.02;12.55;;;3.60;99.90;;;;;;4976501;28;20158;-70
2021/12/08 16:37:10;;;;;;;18.88;12.13;;;3.60;99.90;;;;;;4973163;28;20050;-70
2021/12/08 16:44:55;;;;;;;21.27;13.23;;;3.60;99.90;;;;;;4970848;28;20388;-72